sensor_id;sensor_type;location;lat;lon;timestamp;P1;durP1;ratioP1;P2;durP2;ratioP2
3979;SDS011;2004;52.452;13.120;2023-04-06T00:00:34;5.70;;;3.20;;
3979;SDS011;2004;52.452;13.120;2023-04-06T00:08:26;8.80;;;3.60;;
3979;SDS011;2004;52.452;13.120;2023-04-06T00:16:18;3.80;;;2.83;;
3979;SDS011;2004;52.452;13.120;2023-04-06T00:24:08;4.33;;;3.07;;
3979;SDS011;2004;52.452;13.120;2023-04-06T00:31:59;3.23;;;2.80;;
3979;SDS011;2004;52.452;13.120;2023-04-06T00:39:50;3.83;;;2.97;;
3979;SDS011;2004;52.452;13.120;2023-04-06T00:47:43;5.40;;;3.70;;
3979;SDS011;2004;52.452;13.120;2023-04-06T00:55:34;6.77;;;3.70;;
3979;SDS011;2004;52.452;13.120;2023-04-06T01:03:25;6.60;;;3.30;;
3979;SDS011;2004;52.452;13.120;2023-04-06T01:11:17;5.43;;;3.63;;
3979;SDS011;2004;52.452;13.120;2023-04-06T01:19:11;3.10;;;2.57;;
3979;SDS011;2004;52.452;13.120;2023-04-06T01:27:02;7.07;;;2.97;;
3979;SDS011;2004;52.452;13.120;2023-04-06T01:34:53;3.10;;;2.80;;
3979;SDS011;2004;52.452;13.120;2023-04-06T01:42:45;2.80;;;2.60;;
3979;SDS011;2004;52.452;13.120;2023-04-06T01:50:35;3.77;;;2.83;;
3979;SDS011;2004;52.452;13.120;2023-04-06T01:58:26;5.40;;;3.10;;
3979;SDS011;2004;52.452;13.120;2023-04-06T02:06:17;6.63;;;3.43;;
3979;SDS011;2004;52.452;13.120;2023-04-06T02:14:07;7.40;;;4.00;;
3979;SDS011;2004;52.452;13.120;2023-04-06T02:21:58;4.20;;;3.40;;
3979;SDS011;2004;52.452;13.120;2023-04-06T02:29:48;4.80;;;3.10;;
3979;SDS011;2004;52.452;13.120;2023-04-06T02:37:39;3.47;;;2.90;;
3979;SDS011;2004;52.452;13.120;2023-04-06T02:45:30;9.07;;;3.60;;
3979;SDS011;2004;52.452;13.120;2023-04-06T02:53:20;3.93;;;2.90;;
3979;SDS011;2004;52.452;13.120;2023-04-06T03:01:11;4.03;;;3.20;;
3979;SDS011;2004;52.452;13.120;2023-04-06T03:09:01;7.73;;;3.03;;
3979;SDS011;2004;52.452;13.120;2023-04-06T03:16:53;3.30;;;3.00;;
3979;SDS011;2004;52.452;13.120;2023-04-06T03:24:44;4.30;;;3.43;;
3979;SDS011;2004;52.452;13.120;2023-04-06T03:32:34;5.47;;;3.30;;
3979;SDS011;2004;52.452;13.120;2023-04-06T03:40:25;4.20;;;3.30;;
3979;SDS011;2004;52.452;13.120;2023-04-06T03:48:15;5.37;;;3.27;;
3979;SDS011;2004;52.452;13.120;2023-04-06T03:56:06;4.30;;;3.37;;
3979;SDS011;2004;52.452;13.120;2023-04-06T04:03:57;7.40;;;4.07;;
3979;SDS011;2004;52.452;13.120;2023-04-06T04:11:47;6.67;;;4.33;;
3979;SDS011;2004;52.452;13.120;2023-04-06T04:19:38;6.37;;;3.93;;
3979;SDS011;2004;52.452;13.120;2023-04-06T04:27:29;5.93;;;4.43;;
3979;SDS011;2004;52.452;13.120;2023-04-06T04:35:20;7.90;;;3.80;;
3979;SDS011;2004;52.452;13.120;2023-04-06T04:43:10;6.40;;;3.87;;
3979;SDS011;2004;52.452;13.120;2023-04-06T04:51:01;4.93;;;4.27;;
3979;SDS011;2004;52.452;13.120;2023-04-06T04:58:52;8.50;;;4.60;;
3979;SDS011;2004;52.452;13.120;2023-04-06T05:06:42;9.07;;;4.63;;
3979;SDS011;2004;52.452;13.120;2023-04-06T05:14:33;9.40;;;4.90;;
3979;SDS011;2004;52.452;13.120;2023-04-06T05:22:25;5.87;;;4.33;;
3979;SDS011;2004;52.452;13.120;2023-04-06T05:30:15;10.33;;;5.93;;
3979;SDS011;2004;52.452;13.120;2023-04-06T05:38:09;10.27;;;5.47;;
3979;SDS011;2004;52.452;13.120;2023-04-06T05:46:00;9.87;;;6.03;;
3979;SDS011;2004;52.452;13.120;2023-04-06T05:53:50;6.47;;;5.13;;
3979;SDS011;2004;52.452;13.120;2023-04-06T06:01:41;5.57;;;4.80;;
3979;SDS011;2004;52.452;13.120;2023-04-06T06:09:31;10.00;;;5.07;;
3979;SDS011;2004;52.452;13.120;2023-04-06T06:17:25;10.13;;;5.80;;
3979;SDS011;2004;52.452;13.120;2023-04-06T06:25:15;5.90;;;4.03;;
3979;SDS011;2004;52.452;13.120;2023-04-06T06:33:07;8.27;;;4.87;;
3979;SDS011;2004;52.452;13.120;2023-04-06T06:40:58;7.70;;;5.27;;
3979;SDS011;2004;52.452;13.120;2023-04-06T06:48:49;7.80;;;5.10;;
3979;SDS011;2004;52.452;13.120;2023-04-06T06:56:39;7.00;;;4.77;;
3979;SDS011;2004;52.452;13.120;2023-04-06T07:04:31;9.70;;;5.83;;
3979;SDS011;2004;52.452;13.120;2023-04-06T07:12:21;8.53;;;4.90;;
3979;SDS011;2004;52.452;13.120;2023-04-06T07:20:12;7.00;;;4.53;;
3979;SDS011;2004;52.452;13.120;2023-04-06T07:28:03;5.80;;;4.63;;
3979;SDS011;2004;52.452;13.120;2023-04-06T07:35:55;8.23;;;5.20;;
3979;SDS011;2004;52.452;13.120;2023-04-06T07:43:47;12.97;;;4.63;;
3979;SDS011;2004;52.452;13.120;2023-04-06T07:51:39;8.23;;;5.20;;
3979;SDS011;2004;52.452;13.120;2023-04-06T07:59:30;14.47;;;6.00;;
3979;SDS011;2004;52.452;13.120;2023-04-06T08:07:21;11.30;;;7.30;;
3979;SDS011;2004;52.452;13.120;2023-04-06T08:15:11;9.40;;;4.37;;
3979;SDS011;2004;52.452;13.120;2023-04-06T08:23:02;3.83;;;3.50;;
3979;SDS011;2004;52.452;13.120;2023-04-06T08:30:53;7.40;;;3.37;;
3979;SDS011;2004;52.452;13.120;2023-04-06T08:38:43;6.20;;;2.37;;
3979;SDS011;2004;52.452;13.120;2023-04-06T08:46:34;4.60;;;2.93;;
3979;SDS011;2004;52.452;13.120;2023-04-06T08:54:24;2.63;;;2.43;;
3979;SDS011;2004;52.452;13.120;2023-04-06T09:02:17;4.97;;;3.27;;
3979;SDS011;2004;52.452;13.120;2023-04-06T09:10:09;2.03;;;1.87;;
3979;SDS011;2004;52.452;13.120;2023-04-06T09:17:59;4.30;;;2.07;;
3979;SDS011;2004;52.452;13.120;2023-04-06T09:25:50;2.27;;;2.07;;
3979;SDS011;2004;52.452;13.120;2023-04-06T09:33:44;3.53;;;1.87;;
3979;SDS011;2004;52.452;13.120;2023-04-06T09:41:36;3.50;;;2.50;;
3979;SDS011;2004;52.452;13.120;2023-04-06T09:49:27;5.67;;;2.70;;
3979;SDS011;2004;52.452;13.120;2023-04-06T09:57:24;4.00;;;2.20;;
3979;SDS011;2004;52.452;13.120;2023-04-06T10:05:27;2.67;;;2.20;;
3979;SDS011;2004;52.452;13.120;2023-04-06T10:13:23;3.93;;;2.20;;
3979;SDS011;2004;52.452;13.120;2023-04-06T10:21:16;2.73;;;2.30;;
3979;SDS011;2004;52.452;13.120;2023-04-06T10:29:10;4.20;;;3.23;;
3979;SDS011;2004;52.452;13.120;2023-04-06T10:37:10;4.77;;;3.10;;
3979;SDS011;2004;52.452;13.120;2023-04-06T10:45:03;3.30;;;2.97;;
3979;SDS011;2004;52.452;13.120;2023-04-06T10:53:00;4.83;;;3.40;;
3979;SDS011;2004;52.452;13.120;2023-04-06T11:00:51;3.73;;;2.20;;
3979;SDS011;2004;52.452;13.120;2023-04-06T11:08:43;2.87;;;2.07;;
3979;SDS011;2004;52.452;13.120;2023-04-06T11:16:34;2.10;;;2.00;;
3979;SDS011;2004;52.452;13.120;2023-04-06T11:24:24;2.30;;;2.20;;
3979;SDS011;2004;52.452;13.120;2023-04-06T11:32:21;3.13;;;1.83;;
3979;SDS011;2004;52.452;13.120;2023-04-06T11:40:13;3.20;;;1.90;;
3979;SDS011;2004;52.452;13.120;2023-04-06T11:48:04;2.43;;;2.00;;
3979;SDS011;2004;52.452;13.120;2023-04-06T11:55:55;3.57;;;2.30;;
3979;SDS011;2004;52.452;13.120;2023-04-06T12:03:46;4.67;;;2.30;;
3979;SDS011;2004;52.452;13.120;2023-04-06T12:11:36;2.37;;;2.17;;
3979;SDS011;2004;52.452;13.120;2023-04-06T12:19:27;5.20;;;2.13;;
3979;SDS011;2004;52.452;13.120;2023-04-06T12:27:17;3.23;;;2.13;;
3979;SDS011;2004;52.452;13.120;2023-04-06T12:35:08;2.07;;;1.87;;
3979;SDS011;2004;52.452;13.120;2023-04-06T12:42:59;3.43;;;2.70;;
3979;SDS011;2004;52.452;13.120;2023-04-06T12:51:00;1.60;;;1.50;;
3979;SDS011;2004;52.452;13.120;2023-04-06T12:58:54;2.70;;;2.27;;
3979;SDS011;2004;52.452;13.120;2023-04-06T13:06:45;6.60;;;3.07;;
3979;SDS011;2004;52.452;13.120;2023-04-06T13:14:35;9.37;;;3.37;;
3979;SDS011;2004;52.452;13.120;2023-04-06T13:22:27;2.73;;;1.60;;
3979;SDS011;2004;52.452;13.120;2023-04-06T13:30:18;2.43;;;1.70;;
3979;SDS011;2004;52.452;13.120;2023-04-06T13:38:08;2.00;;;1.73;;
3979;SDS011;2004;52.452;13.120;2023-04-06T13:45:59;3.10;;;2.07;;
3979;SDS011;2004;52.452;13.120;2023-04-06T13:53:51;5.60;;;2.50;;
3979;SDS011;2004;52.452;13.120;2023-04-06T14:01:43;2.90;;;2.70;;
3979;SDS011;2004;52.452;13.120;2023-04-06T14:09:34;3.60;;;2.13;;
3979;SDS011;2004;52.452;13.120;2023-04-06T14:17:24;4.00;;;1.83;;
3979;SDS011;2004;52.452;13.120;2023-04-06T14:25:16;3.53;;;2.80;;
3979;SDS011;2004;52.452;13.120;2023-04-06T14:33:06;4.80;;;2.90;;
3979;SDS011;2004;52.452;13.120;2023-04-06T14:40:57;14.48;;;3.50;;
3979;SDS011;2004;52.452;13.120;2023-04-06T14:48:48;3.63;;;3.30;;
3979;SDS011;2004;52.452;13.120;2023-04-06T14:56:38;4.93;;;3.10;;
3979;SDS011;2004;52.452;13.120;2023-04-06T15:04:30;4.50;;;3.13;;
3979;SDS011;2004;52.452;13.120;2023-04-06T15:12:25;4.10;;;2.63;;
3979;SDS011;2004;52.452;13.120;2023-04-06T15:20:15;3.83;;;2.87;;
3979;SDS011;2004;52.452;13.120;2023-04-06T15:28:07;4.40;;;2.60;;
3979;SDS011;2004;52.452;13.120;2023-04-06T15:36:01;3.87;;;2.80;;
3979;SDS011;2004;52.452;13.120;2023-04-06T15:43:56;3.67;;;2.40;;
3979;SDS011;2004;52.452;13.120;2023-04-06T15:51:47;1.80;;;1.70;;
3979;SDS011;2004;52.452;13.120;2023-04-06T15:59:39;5.73;;;2.53;;
3979;SDS011;2004;52.452;13.120;2023-04-06T16:07:30;4.27;;;2.70;;
3979;SDS011;2004;52.452;13.120;2023-04-06T16:15:21;2.40;;;2.20;;
3979;SDS011;2004;52.452;13.120;2023-04-06T16:23:11;5.03;;;2.67;;
3979;SDS011;2004;52.452;13.120;2023-04-06T16:31:03;5.23;;;2.97;;
3979;SDS011;2004;52.452;13.120;2023-04-06T16:38:54;2.30;;;2.10;;
3979;SDS011;2004;52.452;13.120;2023-04-06T16:46:45;5.77;;;2.43;;
3979;SDS011;2004;52.452;13.120;2023-04-06T16:54:36;2.30;;;2.03;;
3979;SDS011;2004;52.452;13.120;2023-04-06T17:02:27;2.90;;;1.80;;
3979;SDS011;2004;52.452;13.120;2023-04-06T17:10:18;3.27;;;2.37;;
3979;SDS011;2004;52.452;13.120;2023-04-06T17:18:09;2.87;;;2.57;;
3979;SDS011;2004;52.452;13.120;2023-04-06T17:26:04;3.90;;;3.40;;
3979;SDS011;2004;52.452;13.120;2023-04-06T17:33:55;6.53;;;3.97;;
3979;SDS011;2004;52.452;13.120;2023-04-06T17:41:45;3.37;;;2.50;;
3979;SDS011;2004;52.452;13.120;2023-04-06T17:49:36;10.10;;;1.90;;
3979;SDS011;2004;52.452;13.120;2023-04-06T17:57:27;4.37;;;2.30;;
3979;SDS011;2004;52.452;13.120;2023-04-06T18:05:18;4.73;;;2.00;;
3979;SDS011;2004;52.452;13.120;2023-04-06T18:13:09;71.50;;;3.33;;
3979;SDS011;2004;52.452;13.120;2023-04-06T18:21:06;3.07;;;2.47;;
3979;SDS011;2004;52.452;13.120;2023-04-06T18:28:57;3.57;;;3.00;;
3979;SDS011;2004;52.452;13.120;2023-04-06T18:36:48;3.83;;;2.80;;
3979;SDS011;2004;52.452;13.120;2023-04-06T18:44:38;3.80;;;2.60;;
3979;SDS011;2004;52.452;13.120;2023-04-06T18:52:29;7.17;;;4.30;;
3979;SDS011;2004;52.452;13.120;2023-04-06T19:00:20;5.83;;;3.50;;
3979;SDS011;2004;52.452;13.120;2023-04-06T19:08:11;4.53;;;3.53;;
3979;SDS011;2004;52.452;13.120;2023-04-06T19:16:12;4.60;;;3.00;;
3979;SDS011;2004;52.452;13.120;2023-04-06T19:24:04;11.53;;;3.63;;
3979;SDS011;2004;52.452;13.120;2023-04-06T19:31:55;4.70;;;3.50;;
3979;SDS011;2004;52.452;13.120;2023-04-06T19:39:45;6.37;;;4.00;;
3979;SDS011;2004;52.452;13.120;2023-04-06T19:47:37;6.73;;;3.60;;
3979;SDS011;2004;52.452;13.120;2023-04-06T19:55:28;7.10;;;3.93;;
3979;SDS011;2004;52.452;13.120;2023-04-06T20:03:18;35.13;;;16.40;;
3979;SDS011;2004;52.452;13.120;2023-04-06T20:11:09;45.38;;;28.40;;
3979;SDS011;2004;52.452;13.120;2023-04-06T20:19:00;17.13;;;8.60;;
3979;SDS011;2004;52.452;13.120;2023-04-06T20:26:50;29.23;;;13.10;;
3979;SDS011;2004;52.452;13.120;2023-04-06T20:34:43;42.10;;;18.60;;
3979;SDS011;2004;52.452;13.120;2023-04-06T20:42:34;38.20;;;16.87;;
3979;SDS011;2004;52.452;13.120;2023-04-06T20:50:26;21.90;;;9.23;;
3979;SDS011;2004;52.452;13.120;2023-04-06T20:58:16;21.10;;;9.00;;
3979;SDS011;2004;52.452;13.120;2023-04-06T21:06:10;8.87;;;5.57;;
3979;SDS011;2004;52.452;13.120;2023-04-06T21:14:01;7.63;;;5.77;;
3979;SDS011;2004;52.452;13.120;2023-04-06T21:21:52;11.20;;;6.80;;
3979;SDS011;2004;52.452;13.120;2023-04-06T21:29:43;10.00;;;6.20;;
3979;SDS011;2004;52.452;13.120;2023-04-06T21:37:33;8.30;;;5.93;;
3979;SDS011;2004;52.452;13.120;2023-04-06T21:45:24;14.27;;;6.00;;
3979;SDS011;2004;52.452;13.120;2023-04-06T21:53:15;8.20;;;5.77;;
3979;SDS011;2004;52.452;13.120;2023-04-06T22:01:09;11.33;;;6.23;;
3979;SDS011;2004;52.452;13.120;2023-04-06T22:09:00;13.03;;;6.73;;
3979;SDS011;2004;52.452;13.120;2023-04-06T22:16:52;13.33;;;7.80;;
3979;SDS011;2004;52.452;13.120;2023-04-06T22:24:42;16.77;;;8.40;;
3979;SDS011;2004;52.452;13.120;2023-04-06T22:32:33;12.90;;;8.40;;
3979;SDS011;2004;52.452;13.120;2023-04-06T22:40:23;16.10;;;8.50;;
3979;SDS011;2004;52.452;13.120;2023-04-06T22:48:14;10.83;;;7.00;;
3979;SDS011;2004;52.452;13.120;2023-04-06T22:56:05;14.07;;;6.63;;
3979;SDS011;2004;52.452;13.120;2023-04-06T23:03:55;12.40;;;6.70;;
3979;SDS011;2004;52.452;13.120;2023-04-06T23:11:46;8.20;;;5.83;;
3979;SDS011;2004;52.452;13.120;2023-04-06T23:19:38;10.80;;;5.97;;
3979;SDS011;2004;52.452;13.120;2023-04-06T23:27:28;10.83;;;5.70;;
3979;SDS011;2004;52.452;13.120;2023-04-06T23:35:20;9.33;;;5.93;;
3979;SDS011;2004;52.452;13.120;2023-04-06T23:43:11;8.25;;;6.18;;
3979;SDS011;2004;52.452;13.120;2023-04-06T23:51:01;9.00;;;6.00;;
3979;SDS011;2004;52.452;13.120;2023-04-06T23:58:52;10.77;;;6.50;;
